Time;durP1;ratioP1;P1;durP2;ratioP2;P2;SDS_P1;SDS_P2;PMS_P1;PMS_P2;Temp;Humidity;BMP_temperature;BMP_pressure;BME280_temperature;BME280_humidity;BME280_pressure;Samples;Min_cycle;Max_cycle;Signal;HPM_P1;HPM_P2
2023/09/30 00:00:33;;;;;;;9.90;2.10;;;16.20;99.90;;;16.98;100.00;98997.22;5018042;28;20483;-79
2023/09/30 00:03:03;;;;;;;5.63;2.17;;;16.20;99.90;;;16.89;100.00;99009.00;5018959;28;20462;-79
2023/09/30 00:05:33;;;;;;;5.20;2.47;;;16.00;99.90;;;16.87;100.00;99005.78;5018467;28;20490;-79
2023/09/30 00:08:03;;;;;;;7.40;2.30;;;15.90;99.90;;;16.82;100.00;99001.09;5017514;28;20589;-79
2023/09/30 00:10:33;;;;;;;4.87;2.10;;;16.00;99.90;;;16.80;100.00;98994.41;5018068;28;20866;-79
2023/09/30 00:13:06;;;;;;;6.30;2.37;;;15.80;99.90;;;16.78;100.00;98993.75;5018426;28;20492;-79
2023/09/30 00:15:36;;;;;;;6.10;2.80;;;15.80;99.90;;;16.73;100.00;98993.56;5023026;28;20458;-77
2023/09/30 00:18:07;;;;;;;11.50;2.40;;;15.90;99.90;;;16.71;100.00;99001.69;5021695;28;20474;-79
2023/09/30 00:20:39;;;;;;;6.37;1.97;;;15.80;99.90;;;16.67;100.00;98997.00;5019650;28;20468;-79
2023/09/30 00:23:09;;;;;;;5.03;2.20;;;15.80;99.90;;;16.60;100.00;98987.25;5020452;28;20481;-79
2023/09/30 00:25:39;;;;;;;4.20;2.37;;;15.70;99.90;;;16.57;100.00;98989.50;5019755;28;20502;-79
2023/09/30 00:28:08;;;;;;;4.70;1.80;;;15.80;99.90;;;16.53;100.00;98996.97;5020040;28;20469;-79
2023/09/30 00:30:38;;;;;;;6.40;2.33;;;15.70;99.90;;;16.41;100.00;99001.22;5020307;28;20467;-79
2023/09/30 00:33:09;;;;;;;6.37;2.43;;;15.50;99.90;;;16.41;100.00;99010.97;5019577;28;20489;-79
2023/09/30 00:35:40;;;;;;;4.97;1.77;;;15.50;99.90;;;16.44;100.00;99019.31;5021345;28;20470;-79
2023/09/30 00:38:10;;;;;;;6.13;2.23;;;15.50;99.90;;;16.37;100.00;99010.56;5019919;28;20462;-79
2023/09/30 00:40:41;;;;;;;4.20;2.20;;;15.40;99.90;;;16.38;100.00;99008.75;5021771;28;21054;-79
2023/09/30 00:43:20;;;;;;;4.40;2.43;;;15.40;99.90;;;16.20;100.00;99019.84;5019737;28;20493;-79
2023/09/30 00:45:58;;;;;;;3.57;1.90;;;15.30;99.90;;;16.18;100.00;99015.78;5020587;28;20489;-79
2023/09/30 00:48:28;;;;;;;6.13;2.53;;;15.30;99.90;;;16.11;100.00;99015.75;5020084;28;20470;-79
2023/09/30 00:51:00;;;;;;;5.10;2.63;;;15.40;99.90;;;16.11;100.00;99021.84;5019802;28;20540;-79
2023/09/30 00:53:31;;;;;;;10.50;2.57;;;15.30;99.90;;;16.06;100.00;99015.56;5021950;28;20898;-79
2023/09/30 00:56:02;;;;;;;12.60;2.33;;;15.20;99.90;;;16.01;100.00;99023.22;5021868;28;20812;-79
2023/09/30 00:58:31;;;;;;;6.23;2.57;;;15.10;99.90;;;15.99;100.00;99020.00;5019650;28;20502;-79
2023/09/30 01:01:01;;;;;;;6.57;2.10;;;15.10;99.90;;;15.93;100.00;99026.06;5018185;28;20466;-80
2023/09/30 01:03:30;;;;;;;6.33;2.20;;;15.10;99.90;;;15.96;100.00;99025.66;5019651;28;20477;-79
2023/09/30 01:06:02;;;;;;;5.73;2.13;;;15.00;99.90;;;15.97;100.00;99030.72;5019948;28;20494;-79
2023/09/30 01:08:34;;;;;;;9.40;2.73;;;14.90;99.90;;;15.92;100.00;99027.06;5018658;28;20470;-79
2023/09/30 01:11:04;;;;;;;5.10;2.37;;;14.90;99.90;;;15.86;100.00;99030.50;5019419;28;20450;-79
2023/09/30 01:13:38;;;;;;;2.97;1.87;;;15.00;99.90;;;15.85;100.00;99026.22;5019565;28;20470;-79
2023/09/30 01:16:11;;;;;;;8.30;2.57;;;15.00;99.90;;;15.86;100.00;99035.78;5021229;28;20500;-79
2023/09/30 01:18:42;;;;;;;9.83;1.80;;;14.80;99.90;;;15.84;100.00;99029.84;5020676;28;20564;-79
2023/09/30 01:21:14;;;;;;;7.63;2.77;;;14.80;99.90;;;15.77;100.00;99042.19;5020018;28;20490;-79
2023/09/30 01:23:46;;;;;;;10.43;2.57;;;14.90;99.90;;;15.77;100.00;99034.28;5022012;28;20541;-78
2023/09/30 01:26:16;;;;;;;4.83;2.63;;;14.80;99.90;;;15.77;100.00;99024.56;5019533;28;21219;-79
2023/09/30 01:28:48;;;;;;;4.43;2.70;;;14.80;99.90;;;15.74;100.00;99021.50;5020013;28;20461;-78
2023/09/30 01:31:19;;;;;;;6.73;2.53;;;14.60;99.90;;;15.63;100.00;99020.22;5019906;28;20536;-79
2023/09/30 01:33:48;;;;;;;4.57;2.07;;;14.50;99.90;;;15.57;100.00;99015.75;5019791;28;20462;-79
2023/09/30 01:36:18;;;;;;;8.10;2.70;;;14.50;99.90;;;15.53;100.00;99012.69;5019981;28;20465;-79
2023/09/30 01:38:49;;;;;;;4.80;2.40;;;14.60;99.90;;;15.52;100.00;99020.75;5021192;28;20550;-79
2023/09/30 01:41:19;;;;;;;6.10;2.50;;;14.70;99.90;;;15.53;100.00;99017.13;5017758;28;21134;-78
2023/09/30 01:43:48;;;;;;;7.17;2.43;;;14.50;99.90;;;15.53;100.00;99015.31;5020912;28;20549;-79
2023/09/30 01:46:19;;;;;;;6.93;2.13;;;14.60;99.90;;;15.54;100.00;99016.94;5020517;28;20498;-79
2023/09/30 01:48:49;;;;;;;3.93;2.30;;;14.50;99.90;;;15.55;100.00;99015.91;5021222;28;20529;-79
2023/09/30 01:51:19;;;;;;;10.20;2.57;;;14.40;99.90;;;15.41;100.00;99019.44;5020429;28;20477;-79
2023/09/30 01:53:52;;;;;;;5.20;2.67;;;14.30;99.90;;;15.40;100.00;99023.13;5020075;28;20459;-79
2023/09/30 01:56:22;;;;;;;3.87;2.37;;;14.30;99.90;;;15.36;100.00;99024.50;5020466;28;20487;-79
2023/09/30 01:58:52;;;;;;;6.20;2.40;;;14.40;99.90;;;15.33;100.00;99019.63;5021480;28;20541;-79
2023/09/30 02:01:22;;;;;;;5.10;2.70;;;14.50;99.90;;;15.33;100.00;99024.91;5019280;28;20473;-79
2023/09/30 02:03:55;;;;;;;5.80;2.90;;;14.40;99.90;;;15.34;100.00;99034.41;5019738;28;20465;-79
2023/09/30 02:06:25;;;;;;;6.20;2.50;;;14.30;99.90;;;15.30;100.00;99043.72;5018381;28;20493;-79
2023/09/30 02:08:56;;;;;;;7.13;2.27;;;14.40;99.90;;;15.22;100.00;99049.13;5017736;28;20545;-79
2023/09/30 02:11:26;;;;;;;4.40;1.97;;;14.30;99.90;;;15.12;100.00;99053.94;5019295;28;20520;-79
2023/09/30 02:13:56;;;;;;;8.70;2.50;;;14.20;99.90;;;15.15;100.00;99040.38;5018503;28;20530;-79
2023/09/30 02:16:26;;;;;;;5.33;2.87;;;14.20;99.90;;;15.12;100.00;99046.03;5018986;28;20466;-79
2023/09/30 02:18:56;;;;;;;4.67;2.20;;;14.10;99.90;;;15.09;100.00;99047.22;5018707;28;20900;-79
2023/09/30 02:21:28;;;;;;;9.30;2.33;;;14.20;99.90;;;15.07;100.00;99043.97;5016807;28;20508;-78
2023/09/30 02:23:59;;;;;;;8.73;2.77;;;14.30;99.90;;;15.09;100.00;99054.31;5015968;28;20469;-79
2023/09/30 02:26:30;;;;;;;8.53;2.53;;;14.20;99.90;;;15.05;100.00;99058.34;5014337;28;20971;-79
2023/09/30 02:28:59;;;;;;;6.43;3.27;;;14.00;99.90;;;14.97;100.00;99069.81;5016205;28;20463;-79
2023/09/30 02:31:29;;;;;;;3.87;1.97;;;14.00;99.90;;;14.99;100.00;99074.91;5018134;28;20557;-80
2023/09/30 02:33:59;;;;;;;4.47;2.07;;;14.00;99.90;;;14.96;100.00;99062.13;5019313;28;20502;-79
2023/09/30 02:36:30;;;;;;;4.20;2.20;;;14.00;99.90;;;14.95;100.00;99061.31;5019434;28;20524;-79
2023/09/30 02:39:01;;;;;;;3.90;2.03;;;14.00;99.90;;;14.94;100.00;99053.56;5018838;28;20554;-80
2023/09/30 02:41:31;;;;;;;12.27;2.53;;;14.00;99.90;;;14.90;100.00;99052.31;5020170;28;20470;-79
2023/09/30 02:44:01;;;;;;;6.43;2.43;;;13.80;99.90;;;14.79;100.00;99039.66;5018895;28;21034;-79
2023/09/30 02:46:32;;;;;;;4.27;1.90;;;13.90;99.90;;;14.72;100.00;99034.34;5018330;28;20506;-79
2023/09/30 02:49:03;;;;;;;9.63;2.73;;;13.80;99.90;;;14.66;100.00;99027.19;5018258;28;20592;-79
2023/09/30 02:51:33;;;;;;;6.30;2.43;;;13.80;99.90;;;14.69;100.00;99028.63;5017619;28;20473;-79
2023/09/30 02:54:06;;;;;;;6.77;2.13;;;13.70;99.90;;;14.63;100.00;99030.22;5018027;28;20556;-79
2023/09/30 02:56:37;;;;;;;9.07;2.60;;;13.70;99.90;;;14.53;100.00;99034.97;5019989;28;20470;-79
2023/09/30 02:59:08;;;;;;;4.80;2.30;;;13.70;99.90;;;14.56;100.00;99034.59;5017868;28;20454;-79
2023/09/30 03:01:37;;;;;;;8.57;2.77;;;13.60;99.90;;;14.47;100.00;99043.63;5017707;28;20533;-79
2023/09/30 03:04:07;;;;;;;6.17;2.30;;;13.60;99.90;;;14.39;100.00;99047.19;5018558;28;20557;-79
2023/09/30 03:06:38;;;;;;;4.90;2.17;;;13.50;99.90;;;14.46;100.00;99050.69;5018434;28;20491;-78
2023/09/30 03:09:12;;;;;;;7.70;2.27;;;13.40;99.90;;;14.45;100.00;99051.69;5017844;28;20463;-79
2023/09/30 03:11:42;;;;;;;22.63;2.60;;;13.40;99.90;;;14.47;100.00;99049.69;5015422;28;20476;-79
2023/09/30 03:14:13;;;;;;;3.57;2.53;;;13.30;99.90;;;14.39;100.00;99044.56;5017748;28;20458;-79
2023/09/30 03:16:44;;;;;;;2.50;1.93;;;13.40;99.90;;;14.43;100.00;99051.09;5017515;28;20873;-80
2023/09/30 03:19:16;;;;;;;13.43;2.73;;;13.40;99.90;;;14.40;100.00;99067.25;5019044;28;20505;-79
2023/09/30 03:21:47;;;;;;;6.97;2.40;;;13.50;99.90;;;14.34;100.00;99070.59;5017064;28;20489;-79
2023/09/30 03:24:19;;;;;;;7.77;2.00;;;13.40;99.90;;;14.33;100.00;99079.47;5018056;28;20551;-80
2023/09/30 03:26:49;;;;;;;3.20;1.90;;;13.40;99.90;;;14.28;100.00;99068.69;5018439;28;20496;-78
2023/09/30 03:29:19;;;;;;;4.97;2.30;;;13.30;99.90;;;14.29;100.00;99065.06;5018022;28;20470;-79
2023/09/30 03:31:48;;;;;;;7.63;2.37;;;13.30;99.90;;;14.26;100.00;99062.81;5017316;28;20465;-79
2023/09/30 03:34:20;;;;;;;4.30;2.27;;;13.30;99.90;;;14.20;100.00;99060.88;5017287;28;20513;-79
2023/09/30 03:36:50;;;;;;;3.90;1.90;;;13.20;99.90;;;14.18;100.00;99078.69;5019112;28;20454;-80
2023/09/30 03:39:26;;;;;;;4.97;2.30;;;13.30;99.90;;;14.11;100.00;99072.53;5018779;28;20461;-80
2023/09/30 03:41:58;;;;;;;4.30;2.23;;;13.20;99.90;;;14.05;100.00;99068.84;5018713;28;20517;-79
2023/09/30 03:44:28;;;;;;;7.90;2.10;;;13.20;99.90;;;14.08;100.00;99067.66;5019059;28;20481;-79
2023/09/30 03:46:59;;;;;;;11.13;2.60;;;13.10;99.90;;;13.98;100.00;99062.69;5017597;28;20474;-79
2023/09/30 03:49:30;;;;;;;3.93;2.13;;;13.10;99.90;;;13.98;100.00;99060.03;5020430;28;20485;-79
2023/09/30 03:52:01;;;;;;;24.87;2.70;;;13.10;99.90;;;13.96;100.00;99055.94;5017509;28;20545;-79
2023/09/30 03:54:33;;;;;;;23.63;2.70;;;13.10;99.90;;;13.93;100.00;99056.31;5020253;28;20565;-79
2023/09/30 03:57:04;;;;;;;5.17;2.17;;;13.10;99.90;;;13.89;100.00;99078.72;5018755;28;21203;-79
2023/09/30 03:59:34;;;;;;;5.87;2.17;;;13.00;99.90;;;13.90;100.00;99082.97;5020483;28;20462;-79
2023/09/30 04:02:06;;;;;;;4.87;2.30;;;12.90;99.90;;;13.90;100.00;99081.16;5019463;28;20494;-79
2023/09/30 04:04:36;;;;;;;3.10;1.93;;;12.90;99.90;;;13.87;100.00;99093.88;5021536;28;20458;-79
2023/09/30 04:07:07;;;;;;;9.13;2.53;;;12.90;99.90;;;13.87;100.00;99094.69;5018011;28;20470;-79
2023/09/30 04:09:38;;;;;;;4.43;2.60;;;12.80;99.90;;;13.85;100.00;99094.03;5020024;28;20497;-79
2023/09/30 04:12:07;;;;;;;4.50;2.20;;;12.80;99.90;;;13.84;100.00;99088.97;5020335;28;20524;-79
2023/09/30 04:14:37;;;;;;;9.37;2.13;;;12.80;99.90;;;13.77;100.00;99090.69;5018966;28;20458;-79
2023/09/30 04:17:07;;;;;;;4.77;2.80;;;12.70;99.90;;;13.70;100.00;99095.03;5021058;28;20497;-79
2023/09/30 04:19:37;;;;;;;4.80;2.20;;;12.80;99.90;;;13.70;100.00;99089.78;5019290;28;20467;-79
2023/09/30 04:22:06;;;;;;;6.47;2.20;;;12.90;99.90;;;13.59;100.00;99089.25;5017077;28;20600;-79
2023/09/30 04:24:38;;;;;;;3.47;2.10;;;12.80;99.90;;;13.70;100.00;99084.53;5019949;28;20459;-79
2023/09/30 04:27:07;;;;;;;4.40;2.47;;;12.80;99.90;;;13.68;100.00;99078.63;5021586;28;20600;-79
2023/09/30 04:29:37;;;;;;;3.87;2.30;;;12.90;99.90;;;13.71;100.00;99081.72;5020626;28;20512;-80
2023/09/30 04:32:07;;;;;;;4.00;2.60;;;12.80;99.90;;;13.70;100.00;99074.84;5020458;28;20528;-79
2023/09/30 04:34:37;;;;;;;3.97;2.40;;;12.80;99.90;;;13.77;100.00;99080.19;5016691;28;20486;-79
2023/09/30 04:37:09;;;;;;;7.90;3.30;;;12.80;99.90;;;13.74;100.00;99080.53;5020477;28;20466;-81
2023/09/30 04:39:41;;;;;;;6.53;2.97;;;12.80;99.90;;;13.75;100.00;99087.41;5019156;28;20490;-80
2023/09/30 04:42:11;;;;;;;4.27;2.70;;;12.90;99.90;;;13.73;100.00;99089.44;5019015;28;20458;-79
2023/09/30 04:44:41;;;;;;;6.27;2.70;;;12.90;99.90;;;13.81;100.00;99091.97;5019725;28;20466;-80
2023/09/30 04:47:10;;;;;;;5.37;2.70;;;12.80;99.90;;;13.79;100.00;99075.53;5020604;28;20467;-80
2023/09/30 04:49:40;;;;;;;5.60;2.20;;;12.80;99.90;;;13.81;100.00;99071.75;5019060;28;20889;-80
2023/09/30 04:52:10;;;;;;;6.90;3.17;;;12.80;99.90;;;13.84;100.00;99075.84;5018549;28;20468;-80
2023/09/30 04:54:41;;;;;;;3.50;2.33;;;12.90;99.90;;;13.84;100.00;99079.28;5017850;28;20485;-80
2023/09/30 04:57:11;;;;;;;5.60;2.70;;;12.90;99.90;;;13.87;100.00;99075.47;5018963;28;21159;-80
2023/09/30 04:59:42;;;;;;;9.60;2.80;;;12.90;99.90;;;13.84;100.00;99070.56;5019677;28;20557;-79
2023/09/30 05:02:14;;;;;;;6.40;2.50;;;12.90;99.90;;;13.80;100.00;99071.94;5018988;28;20545;-79
2023/09/30 05:04:45;;;;;;;7.07;2.93;;;12.90;99.90;;;13.78;100.00;99087.88;5018115;28;21127;-80
2023/09/30 05:07:15;;;;;;;9.27;2.70;;;12.90;99.90;;;13.78;100.00;99087.09;5019870;28;20976;-80
2023/09/30 05:09:46;;;;;;;6.43;2.77;;;13.00;99.90;;;13.78;100.00;99093.13;5019099;28;21302;-80
2023/09/30 05:12:17;;;;;;;4.60;2.53;;;12.90;99.90;;;13.78;100.00;99093.13;5018715;28;20459;-80
2023/09/30 05:14:48;;;;;;;5.20;2.80;;;12.90;99.90;;;13.80;100.00;99101.66;5013659;28;20478;-80
2023/09/30 05:17:17;;;;;;;6.37;3.10;;;13.00;99.90;;;13.83;100.00;99113.63;5018672;28;20470;-79
2023/09/30 05:19:47;;;;;;;5.37;2.67;;;13.00;99.90;;;13.80;100.00;99117.44;5017503;28;20466;-80
2023/09/30 05:22:19;;;;;;;2.80;2.03;;;13.10;99.90;;;13.87;100.00;99125.41;5017551;28;20492;-80
2023/09/30 05:24:50;;;;;;;3.80;2.20;;;13.00;99.90;;;13.88;100.00;99129.69;5019176;28;20466;-80
2023/09/30 05:27:20;;;;;;;8.33;2.90;;;13.00;99.90;;;13.86;100.00;99124.59;5019825;28;20463;-80
2023/09/30 05:29:48;;;;;;;5.93;2.57;;;13.00;99.90;;;13.83;100.00;99126.78;5017661;28;20853;-80
2023/09/30 05:32:18;;;;;;;6.00;2.60;;;13.00;99.90;;;13.86;100.00;99119.34;5016408;28;20467;-79
2023/09/30 05:34:48;;;;;;;8.73;2.80;;;13.00;99.90;;;13.88;100.00;99114.69;5017932;28;20960;-80
2023/09/30 05:37:21;;;;;;;9.07;2.50;;;13.00;99.90;;;13.88;100.00;99125.22;5015735;28;20621;-81
2023/09/30 05:39:52;;;;;;;7.73;2.60;;;12.90;99.90;;;13.81;100.00;99131.41;5018693;28;20466;-80
2023/09/30 05:42:23;;;;;;;8.70;2.53;;;13.00;99.90;;;13.74;100.00;99127.88;5016118;28;20494;-79
2023/09/30 05:44:53;;;;;;;4.77;2.23;;;13.00;99.90;;;13.63;100.00;99130.94;5020712;28;20459;-79
2023/09/30 05:47:24;;;;;;;5.30;2.80;;;13.00;99.90;;;13.64;100.00;99141.25;5019877;28;20470;-79
2023/09/30 05:49:55;;;;;;;7.53;2.90;;;13.00;99.90;;;13.62;100.00;99127.47;5019437;28;20497;-79
2023/09/30 05:52:24;;;;;;;6.80;3.00;;;12.90;99.90;;;13.63;100.00;99142.25;5018489;28;20473;-79
2023/09/30 05:54:56;;;;;;;5.03;2.87;;;12.90;99.90;;;13.64;100.00;99158.84;5021781;28;20544;-79
2023/09/30 05:57:26;;;;;;;6.30;2.73;;;12.80;99.90;;;13.74;100.00;99148.91;5020019;28;20541;-80
2023/09/30 05:59:56;;;;;;;4.87;2.30;;;12.90;99.90;;;13.80;100.00;99145.53;5022736;28;20838;-79
2023/09/30 06:02:26;;;;;;;5.20;2.40;;;12.80;99.90;;;13.84;100.00;99147.63;5021163;28;20469;-79
2023/09/30 06:04:57;;;;;;;8.40;2.50;;;12.90;99.90;;;13.84;100.00;99134.50;5018629;28;20494;-80
2023/09/30 06:07:27;;;;;;;4.20;2.40;;;13.00;99.90;;;13.87;100.00;99133.31;5020018;28;20493;-80
2023/09/30 06:10:02;;;;;;;7.87;3.00;;;13.00;99.90;;;13.82;100.00;99148.78;5019354;28;20512;-80
2023/09/30 06:12:32;;;;;;;7.00;2.90;;;12.90;99.90;;;13.81;100.00;99149.81;5016220;28;20912;-80
2023/09/30 06:15:04;;;;;;;9.73;2.60;;;13.00;99.90;;;13.81;100.00;99155.06;5020107;28;20465;-80
2023/09/30 06:17:34;;;;;;;7.70;3.30;;;13.00;99.90;;;13.76;100.00;99166.13;5018191;28;20471;-80
2023/09/30 06:20:15;;;;;;;6.97;3.50;;;12.90;99.90;;;13.81;100.00;99157.69;5014146;28;21021;-80
2023/09/30 06:22:49;;;;;;;8.77;3.57;;;13.00;99.90;;;13.79;100.00;99165.75;5017486;28;20488;-79
2023/09/30 06:25:23;;;;;;;7.97;2.90;;;13.00;99.90;;;13.82;100.00;99157.50;5020035;28;20953;-79
2023/09/30 06:27:55;;;;;;;4.27;2.60;;;13.00;99.90;;;13.90;100.00;99159.25;5015783;28;20470;-79
2023/09/30 06:30:29;;;;;;;10.33;4.00;;;13.00;99.90;;;13.89;100.00;99160.22;5014498;28;20467;-81
2023/09/30 06:33:01;;;;;;;10.70;3.13;;;13.10;99.90;;;13.91;100.00;99166.97;5019339;28;20967;-80
2023/09/30 06:35:37;;;;;;;8.97;3.10;;;13.10;99.90;;;13.97;100.00;99154.88;5017996;28;20855;-80
2023/09/30 06:38:07;;;;;;;9.93;3.30;;;13.20;99.90;;;13.94;100.00;99152.63;5016649;28;20545;-80
2023/09/30 06:40:42;;;;;;;6.43;3.20;;;13.10;99.90;;;13.93;100.00;99164.13;5016719;28;20462;-80
2023/09/30 06:43:15;;;;;;;5.83;2.90;;;13.20;99.90;;;13.95;100.00;99159.53;5019489;28;20467;-80
2023/09/30 06:45:46;;;;;;;9.67;3.03;;;13.20;99.90;;;13.96;100.00;99164.59;5016470;28;20496;-80
2023/09/30 06:48:16;;;;;;;5.83;2.63;;;13.20;99.90;;;14.01;100.00;99167.50;5017751;28;20971;-79
2023/09/30 06:50:48;;;;;;;5.50;3.10;;;13.30;99.90;;;14.03;100.00;99169.94;5016161;28;20578;-80
2023/09/30 06:53:17;;;;;;;5.07;2.43;;;13.20;99.90;;;14.05;100.00;99170.59;5017912;28;20548;-80
2023/09/30 06:55:48;;;;;;;6.40;2.93;;;13.20;99.90;;;14.02;100.00;99170.97;5016467;28;20900;-80
2023/09/30 06:58:20;;;;;;;5.53;2.60;;;13.20;99.90;;;14.03;100.00;99159.41;5018669;28;20492;-80
2023/09/30 07:00:53;;;;;;;4.67;2.67;;;13.30;99.90;;;13.98;100.00;99167.88;5014748;28;20474;-80
2023/09/30 07:03:23;;;;;;;5.47;2.67;;;13.30;99.90;;;14.00;100.00;99163.22;5015673;28;20528;-80
2023/09/30 07:05:56;;;;;;;5.63;2.53;;;13.30;99.90;;;14.08;100.00;99173.69;5015607;28;20502;-80
2023/09/30 07:08:26;;;;;;;5.80;2.77;;;13.30;99.90;;;14.06;100.00;99167.75;5016767;28;20465;-80
2023/09/30 07:10:56;;;;;;;6.23;2.77;;;13.30;99.90;;;14.04;100.00;99172.41;5014607;28;20468;-78
2023/09/30 07:13:26;;;;;;;7.70;3.03;;;13.20;99.90;;;14.05;100.00;99162.69;5018310;28;20491;-79
2023/09/30 07:15:56;;;;;;;7.27;3.30;;;13.30;99.90;;;14.03;100.00;99175.19;5016770;28;20462;-80
2023/09/30 07:18:26;;;;;;;12.90;3.63;;;13.40;99.90;;;14.04;100.00;99177.66;5016045;28;21528;-80
2023/09/30 07:20:56;;;;;;;12.43;3.80;;;13.40;99.90;;;14.03;100.00;99177.81;5014829;28;20494;-80
2023/09/30 07:23:26;;;;;;;8.50;3.80;;;13.40;99.90;;;14.03;100.00;99173.38;5014141;28;20470;-80
2023/09/30 07:25:59;;;;;;;22.80;4.67;;;13.40;99.90;;;14.04;100.00;99177.66;5017521;28;20890;-80
2023/09/30 07:28:30;;;;;;;12.27;4.20;;;13.40;99.90;;;14.03;100.00;99181.28;5012433;28;20490;-81
2023/09/30 07:30:59;;;;;;;11.40;4.70;;;13.50;99.90;;;14.00;100.00;99180.81;5016446;28;20462;-80
2023/09/30 07:33:30;;;;;;;20.13;5.23;;;13.50;99.90;;;14.02;100.00;99184.09;5017289;28;20464;-80
2023/09/30 07:36:00;;;;;;;8.10;4.10;;;13.50;99.90;;;14.05;100.00;99174.03;5013968;28;20520;-79
2023/09/30 07:38:30;;;;;;;13.83;5.37;;;13.50;99.90;;;14.07;100.00;99166.78;5014257;28;20469;-80
2023/09/30 07:41:05;;;;;;;12.50;5.13;;;13.40;99.90;;;14.09;100.00;99163.97;5016625;28;20598;-80
2023/09/30 07:43:34;;;;;;;10.13;4.97;;;13.40;99.90;;;14.16;100.00;99169.31;5017050;28;20511;-80
2023/09/30 07:46:07;;;;;;;10.50;4.60;;;13.50;99.90;;;14.19;100.00;99175.03;5016596;28;20472;-80
2023/09/30 07:48:40;;;;;;;13.30;4.93;;;13.60;99.90;;;14.15;100.00;99179.03;5015169;28;20457;-80
2023/09/30 07:51:12;;;;;;;23.53;5.60;;;13.60;99.90;;;14.17;100.00;99186.72;5017961;28;20459;-79
2023/09/30 07:53:42;;;;;;;15.53;5.43;;;13.70;99.90;;;14.17;100.00;99186.72;5017066;28;20560;-80
2023/09/30 07:56:14;;;;;;;16.03;5.70;;;13.70;99.90;;;14.23;100.00;99191.28;5018442;28;20462;-79
2023/09/30 07:58:44;;;;;;;7.93;4.67;;;13.60;99.90;;;14.27;100.00;99184.63;5019189;28;20575;-80
2023/09/30 08:01:14;;;;;;;8.57;4.50;;;13.70;99.90;;;14.31;100.00;99186.72;5019919;28;20466;-80
2023/09/30 08:03:44;;;;;;;16.47;4.97;;;13.70;99.90;;;14.35;100.00;99195.91;5017678;28;20446;-80
2023/09/30 08:06:15;;;;;;;17.83;4.97;;;13.70;99.90;;;14.35;100.00;99189.84;5019564;28;20859;-79
2023/09/30 08:08:45;;;;;;;11.90;5.23;;;13.70;99.90;;;14.40;100.00;99184.84;5018841;28;20485;-80
2023/09/30 08:11:21;;;;;;;14.33;4.93;;;13.70;99.90;;;14.39;100.00;99191.09;5018577;28;20497;-80
2023/09/30 08:13:51;;;;;;;10.20;4.50;;;13.80;99.90;;;14.41;100.00;99184.66;5019137;28;20438;-80
2023/09/30 08:16:21;;;;;;;7.13;3.97;;;13.80;99.90;;;14.46;100.00;99187.56;5018382;28;20445;-79
2023/09/30 08:18:51;;;;;;;8.23;4.23;;;13.90;99.90;;;14.50;100.00;99178.31;5017076;28;20945;-79
2023/09/30 08:21:23;;;;;;;11.30;4.50;;;13.90;99.90;;;14.54;100.00;99163.75;5016111;28;20469;-80
2023/09/30 08:23:55;;;;;;;9.20;4.73;;;13.90;99.90;;;14.56;100.00;99174.94;5016384;28;20933;-78
2023/09/30 08:26:27;;;;;;;11.73;4.60;;;14.00;99.90;;;14.60;100.00;99170.13;5017154;28;20485;-80
2023/09/30 08:28:57;;;;;;;8.47;3.90;;;14.00;99.90;;;14.64;100.00;99179.28;5019422;28;20548;-79
2023/09/30 08:31:27;;;;;;;9.70;4.17;;;13.90;99.90;;;14.69;100.00;99183.97;5018467;28;20466;-79
2023/09/30 08:33:58;;;;;;;12.30;4.33;;;14.00;99.90;;;14.70;100.00;99175.91;5018511;28;20508;-79
2023/09/30 08:36:28;;;;;;;9.43;3.70;;;14.00;99.90;;;14.78;100.00;99177.63;5018465;28;20459;-79
2023/09/30 08:38:58;;;;;;;7.27;4.23;;;14.10;99.90;;;14.82;100.00;99170.97;5020833;28;20470;-80
2023/09/30 08:41:33;;;;;;;6.80;4.63;;;14.00;99.90;;;14.88;100.00;99175.50;5019480;28;20469;-80
2023/09/30 08:44:04;;;;;;;9.23;4.57;;;14.10;99.90;;;14.91;100.00;99185.66;5019973;28;20960;-79
2023/09/30 08:46:36;;;;;;;9.40;3.73;;;14.20;99.90;;;14.94;100.00;99186.09;5022648;28;20477;-79
2023/09/30 08:49:06;;;;;;;11.87;4.30;;;14.30;99.90;;;15.00;100.00;99184.53;5019470;28;20490;-79
2023/09/30 08:51:38;;;;;;;13.03;3.83;;;14.30;99.90;;;15.06;100.00;99199.59;5019445;28;20541;-79
2023/09/30 08:54:08;;;;;;;9.73;4.20;;;14.30;99.90;;;15.09;100.00;99196.59;5019768;28;20462;-79
2023/09/30 08:56:49;;;;;;;14.00;3.80;;;14.30;99.90;;;15.15;100.00;99193.19;5017975;28;20459;-79
2023/09/30 08:59:19;;;;;;;6.43;3.30;;;14.30;99.90;;;15.18;100.00;99192.81;5020112;28;20466;-79
2023/09/30 09:01:51;;;;;;;10.07;4.27;;;14.40;99.90;;;15.20;100.00;99180.28;5016753;28;20540;-81
2023/09/30 09:04:20;;;;;;;9.57;4.57;;;14.50;99.90;;;15.25;100.00;99183.16;5016922;28;20843;-79
2023/09/30 09:06:50;;;;;;;10.90;4.90;;;14.40;99.90;;;15.27;100.00;99177.72;5018892;28;20457;-80
2023/09/30 09:09:22;;;;;;;7.97;3.70;;;14.60;99.90;;;15.30;100.00;99172.06;5019266;28;20885;-80
2023/09/30 09:11:53;;;;;;;5.03;3.00;;;14.60;99.90;;;15.34;100.00;99171.47;5017090;28;20458;-80
2023/09/30 09:14:39;;;;;;;37.53;15.10;;;14.70;99.90;;;15.40;100.00;99164.66;5016509;28;20462;-79
2023/09/30 09:17:10;;;;;;;13.60;5.67;;;14.60;99.90;;;15.42;100.00;99171.34;5019356;28;20532;-80
2023/09/30 09:19:40;;;;;;;10.93;4.03;;;14.60;99.90;;;15.46;100.00;99175.25;5018993;28;20807;-80
2023/09/30 09:22:10;;;;;;;8.47;4.73;;;14.60;99.90;;;15.52;100.00;99166.59;5017490;28;20513;-78
2023/09/30 09:24:42;;;;;;;8.23;4.10;;;14.70;99.90;;;15.55;100.00;99171.47;5017780;28;20489;-79
2023/09/30 09:27:16;;;;;;;12.13;4.17;;;14.70;99.90;;;15.58;100.00;99184.28;5018341;28;20558;-79
2023/09/30 09:29:46;;;;;;;9.63;4.53;;;14.70;99.90;;;15.59;100.00;99178.00;5018642;28;20481;-79
2023/09/30 09:32:17;;;;;;;10.80;4.10;;;14.80;99.90;;;15.64;100.00;99176.63;5018348;28;20462;-78
2023/09/30 09:35:01;;;;;;;9.07;5.33;;;14.90;99.90;;;15.67;100.00;99171.78;5017990;28;20558;-80
2023/09/30 09:37:35;;;;;;;10.20;4.10;;;14.90;99.90;;;15.70;100.00;99170.56;5020033;28;20454;-79
2023/09/30 09:40:07;;;;;;;11.03;3.40;;;14.90;99.90;;;15.77;100.00;99184.63;5018662;28;20462;-80
2023/09/30 09:42:38;;;;;;;15.13;4.10;;;15.00;99.90;;;15.81;100.00;99176.16;5019638;28;20966;-79
2023/09/30 09:45:13;;;;;;;10.13;3.67;;;15.10;99.90;;;15.87;100.00;99166.63;5016837;28;20550;-79
2023/09/30 09:47:42;;;;;;;11.87;4.43;;;15.20;99.90;;;15.92;100.00;99172.16;5017074;28;20466;-79
2023/09/30 09:50:14;;;;;;;8.70;3.80;;;15.20;99.90;;;15.97;100.00;99162.66;5018762;28;21037;-80
2023/09/30 09:52:48;;;;;;;8.67;4.10;;;15.30;99.90;;;16.04;100.00;99165.31;5018014;28;20454;-80
2023/09/30 09:55:19;;;;;;;7.97;3.33;;;15.30;99.90;;;16.12;100.00;99165.19;5015108;28;20464;-79
2023/09/30 09:57:52;;;;;;;11.57;4.50;;;15.40;99.90;;;16.19;100.00;99162.56;5016714;28;20509;-80
2023/09/30 10:00:24;;;;;;;181.17;86.13;;;15.40;99.90;;;16.27;100.00;99157.13;5016834;28;20489;-81
2023/09/30 10:02:54;;;;;;;9.33;4.60;;;15.60;99.90;;;16.37;100.00;99157.59;5016790;28;20471;-79
2023/09/30 10:05:24;;;;;;;9.80;3.50;;;15.60;99.90;;;16.44;100.00;99150.50;5018175;28;20462;-79
2023/09/30 10:08:01;;;;;;;9.67;3.50;;;15.70;99.90;;;16.54;100.00;99158.88;5020720;28;20462;-79
2023/09/30 10:10:37;;;;;;;10.47;3.83;;;15.90;99.90;;;16.60;100.00;99168.69;5016402;28;20489;-79
2023/09/30 10:13:08;;;;;;;11.43;4.03;;;16.00;99.90;;;16.69;100.00;99156.13;5019060;28;20465;-79
2023/09/30 10:15:43;;;;;;;5.80;3.17;;;16.10;99.90;;;16.77;100.00;99145.34;5017341;28;20465;-79
2023/09/30 10:18:14;;;;;;;9.03;3.87;;;16.20;99.90;;;16.88;100.00;99142.13;5019108;28;20512;-79
2023/09/30 10:20:47;;;;;;;11.43;3.90;;;16.20;99.90;;;16.95;100.00;99140.31;5016740;28;20497;-79
2023/09/30 10:23:43;;;;;;;11.00;3.90;;;16.30;99.90;;;17.03;100.00;99137.50;5018984;28;20462;-79
2023/09/30 10:26:20;;;;;;;10.70;4.23;;;16.40;99.90;;;17.12;100.00;99131.00;5016187;28;20467;-79